sensor_id;sensor_type;location;lat;lon;timestamp;P1;durP1;ratioP1;P2;durP2;ratioP2
18048;SDS011;9149;47.002;8.604;2024-03-02T00:00:15;8.30;;;4.17;;
18048;SDS011;9149;47.002;8.604;2024-03-02T00:02:44;9.90;;;4.77;;
18048;SDS011;9149;47.002;8.604;2024-03-02T00:05:14;6.33;;;3.93;;
18048;SDS011;9149;47.002;8.604;2024-03-02T00:07:43;6.57;;;4.20;;
18048;SDS011;9149;47.002;8.604;2024-03-02T00:10:11;5.73;;;3.70;;
18048;SDS011;9149;47.002;8.604;2024-03-02T00:12:39;4.00;;;2.90;;
18048;SDS011;9149;47.002;8.604;2024-03-02T00:15:21;6.53;;;3.40;;
18048;SDS011;9149;47.002;8.604;2024-03-02T00:17:53;5.10;;;3.20;;
18048;SDS011;9149;47.002;8.604;2024-03-02T00:20:23;5.83;;;3.00;;
18048;SDS011;9149;47.002;8.604;2024-03-02T00:22:53;4.63;;;3.00;;
18048;SDS011;9149;47.002;8.604;2024-03-02T00:25:25;3.63;;;2.63;;
18048;SDS011;9149;47.002;8.604;2024-03-02T00:27:53;4.63;;;2.27;;
18048;SDS011;9149;47.002;8.604;2024-03-02T00:30:32;7.90;;;2.40;;
18048;SDS011;9149;47.002;8.604;2024-03-02T00:33:08;2.60;;;1.90;;
18048;SDS011;9149;47.002;8.604;2024-03-02T00:35:37;4.30;;;2.70;;
18048;SDS011;9149;47.002;8.604;2024-03-02T00:38:05;5.67;;;3.17;;
18048;SDS011;9149;47.002;8.604;2024-03-02T00:40:33;5.93;;;3.17;;
18048;SDS011;9149;47.002;8.604;2024-03-02T00:43:01;5.47;;;3.33;;
18048;SDS011;9149;47.002;8.604;2024-03-02T00:45:29;6.33;;;4.23;;
18048;SDS011;9149;47.002;8.604;2024-03-02T00:47:57;5.60;;;3.70;;
18048;SDS011;9149;47.002;8.604;2024-03-02T00:50:25;5.53;;;3.20;;
18048;SDS011;9149;47.002;8.604;2024-03-02T00:52:58;3.97;;;2.73;;
18048;SDS011;9149;47.002;8.604;2024-03-02T00:55:26;9.63;;;3.07;;
18048;SDS011;9149;47.002;8.604;2024-03-02T00:57:54;5.60;;;3.43;;
18048;SDS011;9149;47.002;8.604;2024-03-02T01:00:22;10.50;;;4.20;;
18048;SDS011;9149;47.002;8.604;2024-03-02T01:02:50;5.43;;;3.70;;
18048;SDS011;9149;47.002;8.604;2024-03-02T01:05:17;7.57;;;3.80;;
18048;SDS011;9149;47.002;8.604;2024-03-02T01:07:45;6.27;;;3.83;;
18048;SDS011;9149;47.002;8.604;2024-03-02T01:10:14;6.67;;;3.80;;
18048;SDS011;9149;47.002;8.604;2024-03-02T01:12:42;5.43;;;3.37;;
18048;SDS011;9149;47.002;8.604;2024-03-02T01:15:09;4.57;;;2.93;;
18048;SDS011;9149;47.002;8.604;2024-03-02T01:17:38;6.40;;;3.20;;
18048;SDS011;9149;47.002;8.604;2024-03-02T01:20:07;4.50;;;2.87;;
18048;SDS011;9149;47.002;8.604;2024-03-02T01:22:35;6.17;;;3.50;;
18048;SDS011;9149;47.002;8.604;2024-03-02T01:25:03;4.17;;;2.87;;
18048;SDS011;9149;47.002;8.604;2024-03-02T01:27:32;5.33;;;3.37;;
18048;SDS011;9149;47.002;8.604;2024-03-02T01:30:00;4.63;;;2.93;;
18048;SDS011;9149;47.002;8.604;2024-03-02T01:32:28;5.00;;;2.77;;
18048;SDS011;9149;47.002;8.604;2024-03-02T01:34:56;3.73;;;2.60;;
18048;SDS011;9149;47.002;8.604;2024-03-02T01:37:23;3.60;;;2.60;;
18048;SDS011;9149;47.002;8.604;2024-03-02T01:39:51;4.43;;;2.67;;
18048;SDS011;9149;47.002;8.604;2024-03-02T01:42:19;3.93;;;2.70;;
18048;SDS011;9149;47.002;8.604;2024-03-02T01:44:48;4.67;;;2.20;;
18048;SDS011;9149;47.002;8.604;2024-03-02T01:47:15;3.73;;;2.43;;
18048;SDS011;9149;47.002;8.604;2024-03-02T01:49:43;2.33;;;2.10;;
18048;SDS011;9149;47.002;8.604;2024-03-02T01:52:11;3.30;;;2.40;;
18048;SDS011;9149;47.002;8.604;2024-03-02T01:54:39;3.10;;;2.13;;
18048;SDS011;9149;47.002;8.604;2024-03-02T01:57:06;3.13;;;2.03;;
18048;SDS011;9149;47.002;8.604;2024-03-02T01:59:34;5.07;;;2.40;;
18048;SDS011;9149;47.002;8.604;2024-03-02T02:02:03;3.33;;;2.50;;
18048;SDS011;9149;47.002;8.604;2024-03-02T02:04:31;3.63;;;2.63;;
18048;SDS011;9149;47.002;8.604;2024-03-02T02:06:59;3.07;;;2.10;;
18048;SDS011;9149;47.002;8.604;2024-03-02T02:09:27;2.50;;;2.00;;
18048;SDS011;9149;47.002;8.604;2024-03-02T02:11:54;3.53;;;2.10;;
18048;SDS011;9149;47.002;8.604;2024-03-02T02:14:22;1.97;;;1.57;;
18048;SDS011;9149;47.002;8.604;2024-03-02T02:16:50;1.67;;;1.43;;
18048;SDS011;9149;47.002;8.604;2024-03-02T02:19:20;2.30;;;1.80;;
18048;SDS011;9149;47.002;8.604;2024-03-02T02:21:48;3.73;;;2.03;;
18048;SDS011;9149;47.002;8.604;2024-03-02T02:24:16;3.67;;;1.90;;
18048;SDS011;9149;47.002;8.604;2024-03-02T02:26:44;2.13;;;1.83;;
18048;SDS011;9149;47.002;8.604;2024-03-02T02:29:12;2.20;;;1.83;;
18048;SDS011;9149;47.002;8.604;2024-03-02T02:31:40;2.97;;;1.97;;
18048;SDS011;9149;47.002;8.604;2024-03-02T02:34:07;2.80;;;1.90;;
18048;SDS011;9149;47.002;8.604;2024-03-02T02:36:36;1.90;;;1.60;;
18048;SDS011;9149;47.002;8.604;2024-03-02T02:39:06;2.30;;;1.70;;
18048;SDS011;9149;47.002;8.604;2024-03-02T02:41:37;4.80;;;1.80;;
18048;SDS011;9149;47.002;8.604;2024-03-02T02:44:05;2.33;;;1.90;;
18048;SDS011;9149;47.002;8.604;2024-03-02T02:46:32;3.80;;;2.20;;
18048;SDS011;9149;47.002;8.604;2024-03-02T02:49:00;2.33;;;1.90;;
18048;SDS011;9149;47.002;8.604;2024-03-02T02:51:28;2.77;;;2.10;;
18048;SDS011;9149;47.002;8.604;2024-03-02T02:53:55;3.00;;;2.00;;
18048;SDS011;9149;47.002;8.604;2024-03-02T02:56:24;4.53;;;2.10;;
18048;SDS011;9149;47.002;8.604;2024-03-02T02:58:52;7.70;;;2.00;;
18048;SDS011;9149;47.002;8.604;2024-03-02T03:01:20;5.13;;;2.17;;
18048;SDS011;9149;47.002;8.604;2024-03-02T03:03:47;2.53;;;1.70;;
18048;SDS011;9149;47.002;8.604;2024-03-02T03:06:15;2.87;;;1.90;;
18048;SDS011;9149;47.002;8.604;2024-03-02T03:08:43;3.50;;;1.67;;
18048;SDS011;9149;47.002;8.604;2024-03-02T03:11:11;2.30;;;1.67;;
18048;SDS011;9149;47.002;8.604;2024-03-02T03:13:40;2.83;;;1.93;;
18048;SDS011;9149;47.002;8.604;2024-03-02T03:16:07;2.13;;;1.90;;
18048;SDS011;9149;47.002;8.604;2024-03-02T03:18:35;2.60;;;2.00;;
18048;SDS011;9149;47.002;8.604;2024-03-02T03:21:03;4.40;;;2.00;;
18048;SDS011;9149;47.002;8.604;2024-03-02T03:23:31;2.20;;;1.70;;
18048;SDS011;9149;47.002;8.604;2024-03-02T03:25:59;2.37;;;1.80;;
18048;SDS011;9149;47.002;8.604;2024-03-02T03:28:27;2.80;;;2.07;;
18048;SDS011;9149;47.002;8.604;2024-03-02T03:30:56;4.30;;;1.97;;
18048;SDS011;9149;47.002;8.604;2024-03-02T03:33:23;1.60;;;1.50;;
18048;SDS011;9149;47.002;8.604;2024-03-02T03:35:51;2.00;;;1.70;;
18048;SDS011;9149;47.002;8.604;2024-03-02T03:38:19;4.33;;;1.67;;
18048;SDS011;9149;47.002;8.604;2024-03-02T03:40:47;1.83;;;1.50;;
18048;SDS011;9149;47.002;8.604;2024-03-02T03:43:15;2.00;;;1.70;;
18048;SDS011;9149;47.002;8.604;2024-03-02T03:45:42;1.93;;;1.60;;
18048;SDS011;9149;47.002;8.604;2024-03-02T03:48:11;1.73;;;1.63;;
18048;SDS011;9149;47.002;8.604;2024-03-02T03:50:39;2.00;;;1.80;;
18048;SDS011;9149;47.002;8.604;2024-03-02T03:53:07;2.23;;;1.90;;
18048;SDS011;9149;47.002;8.604;2024-03-02T03:55:35;3.07;;;1.60;;
18048;SDS011;9149;47.002;8.604;2024-03-02T03:58:02;2.20;;;1.63;;
18048;SDS011;9149;47.002;8.604;2024-03-02T04:00:30;1.50;;;1.40;;
18048;SDS011;9149;47.002;8.604;2024-03-02T04:02:58;1.67;;;1.53;;
18048;SDS011;9149;47.002;8.604;2024-03-02T04:05:27;1.93;;;1.47;;
18048;SDS011;9149;47.002;8.604;2024-03-02T04:07:54;2.00;;;1.50;;
18048;SDS011;9149;47.002;8.604;2024-03-02T04:10:22;1.73;;;1.33;;
18048;SDS011;9149;47.002;8.604;2024-03-02T04:12:50;1.93;;;1.53;;
18048;SDS011;9149;47.002;8.604;2024-03-02T04:15:18;1.73;;;1.63;;
18048;SDS011;9149;47.002;8.604;2024-03-02T04:17:46;3.27;;;1.67;;
18048;SDS011;9149;47.002;8.604;2024-03-02T04:20:14;2.40;;;1.77;;
18048;SDS011;9149;47.002;8.604;2024-03-02T04:22:43;2.17;;;1.60;;
18048;SDS011;9149;47.002;8.604;2024-03-02T04:25:10;2.13;;;1.70;;
18048;SDS011;9149;47.002;8.604;2024-03-02T04:27:38;1.80;;;1.50;;
18048;SDS011;9149;47.002;8.604;2024-03-02T04:30:06;2.10;;;1.63;;
18048;SDS011;9149;47.002;8.604;2024-03-02T04:32:34;2.67;;;1.80;;
18048;SDS011;9149;47.002;8.604;2024-03-02T04:35:03;2.20;;;1.83;;
18048;SDS011;9149;47.002;8.604;2024-03-02T04:37:31;2.53;;;1.77;;
18048;SDS011;9149;47.002;8.604;2024-03-02T04:40:00;5.07;;;2.07;;
18048;SDS011;9149;47.002;8.604;2024-03-02T04:42:28;2.53;;;1.90;;
18048;SDS011;9149;47.002;8.604;2024-03-02T04:44:56;4.47;;;2.10;;
18048;SDS011;9149;47.002;8.604;2024-03-02T04:47:23;1.70;;;1.50;;
18048;SDS011;9149;47.002;8.604;2024-03-02T04:49:51;4.43;;;2.30;;
18048;SDS011;9149;47.002;8.604;2024-03-02T04:52:18;2.03;;;1.70;;
18048;SDS011;9149;47.002;8.604;2024-03-02T04:54:46;2.40;;;1.93;;
18048;SDS011;9149;47.002;8.604;2024-03-02T04:57:25;6.93;;;1.93;;
18048;SDS011;9149;47.002;8.604;2024-03-02T04:59:53;3.97;;;2.03;;
18048;SDS011;9149;47.002;8.604;2024-03-02T05:02:21;2.97;;;2.07;;
18048;SDS011;9149;47.002;8.604;2024-03-02T05:04:48;3.33;;;2.20;;
18048;SDS011;9149;47.002;8.604;2024-03-02T05:07:16;3.53;;;2.53;;
18048;SDS011;9149;47.002;8.604;2024-03-02T05:09:44;3.33;;;2.43;;
18048;SDS011;9149;47.002;8.604;2024-03-02T05:12:11;4.47;;;2.47;;
18048;SDS011;9149;47.002;8.604;2024-03-02T05:15:03;3.13;;;2.47;;
18048;SDS011;9149;47.002;8.604;2024-03-02T05:17:30;3.73;;;2.43;;
18048;SDS011;9149;47.002;8.604;2024-03-02T05:19:58;4.50;;;2.80;;
18048;SDS011;9149;47.002;8.604;2024-03-02T05:22:26;4.00;;;2.60;;
18048;SDS011;9149;47.002;8.604;2024-03-02T05:24:53;4.67;;;2.60;;
18048;SDS011;9149;47.002;8.604;2024-03-02T05:27:21;4.00;;;2.50;;
18048;SDS011;9149;47.002;8.604;2024-03-02T05:29:49;4.70;;;3.20;;
18048;SDS011;9149;47.002;8.604;2024-03-02T05:32:18;5.90;;;3.50;;
18048;SDS011;9149;47.002;8.604;2024-03-02T05:34:45;8.67;;;3.33;;
18048;SDS011;9149;47.002;8.604;2024-03-02T05:37:13;7.40;;;5.10;;
18048;SDS011;9149;47.002;8.604;2024-03-02T05:39:40;5.23;;;3.13;;
18048;SDS011;9149;47.002;8.604;2024-03-02T05:42:09;6.17;;;2.80;;
18048;SDS011;9149;47.002;8.604;2024-03-02T05:44:37;3.30;;;2.30;;
18048;SDS011;9149;47.002;8.604;2024-03-02T05:47:05;6.40;;;2.37;;
18048;SDS011;9149;47.002;8.604;2024-03-02T05:49:36;3.50;;;2.47;;
18048;SDS011;9149;47.002;8.604;2024-03-02T05:52:04;4.77;;;3.13;;
18048;SDS011;9149;47.002;8.604;2024-03-02T05:54:32;7.87;;;3.53;;
18048;SDS011;9149;47.002;8.604;2024-03-02T05:56:59;4.13;;;3.00;;
18048;SDS011;9149;47.002;8.604;2024-03-02T05:59:43;3.60;;;2.70;;
18048;SDS011;9149;47.002;8.604;2024-03-02T06:02:11;4.43;;;2.10;;
18048;SDS011;9149;47.002;8.604;2024-03-02T06:04:40;3.73;;;1.90;;
18048;SDS011;9149;47.002;8.604;2024-03-02T06:07:08;2.23;;;1.70;;
18048;SDS011;9149;47.002;8.604;2024-03-02T06:09:35;3.43;;;1.90;;
18048;SDS011;9149;47.002;8.604;2024-03-02T06:12:02;2.83;;;2.10;;
18048;SDS011;9149;47.002;8.604;2024-03-02T06:14:30;2.77;;;1.97;;
18048;SDS011;9149;47.002;8.604;2024-03-02T06:16:58;2.57;;;2.13;;
18048;SDS011;9149;47.002;8.604;2024-03-02T06:19:26;3.00;;;2.30;;
18048;SDS011;9149;47.002;8.604;2024-03-02T06:21:56;2.60;;;2.03;;
18048;SDS011;9149;47.002;8.604;2024-03-02T06:24:23;3.57;;;2.37;;
18048;SDS011;9149;47.002;8.604;2024-03-02T06:26:52;3.20;;;2.20;;
18048;SDS011;9149;47.002;8.604;2024-03-02T06:29:20;3.00;;;2.30;;
18048;SDS011;9149;47.002;8.604;2024-03-02T06:31:48;4.47;;;2.70;;
18048;SDS011;9149;47.002;8.604;2024-03-02T06:34:20;4.70;;;3.00;;
18048;SDS011;9149;47.002;8.604;2024-03-02T06:36:47;4.47;;;3.00;;
18048;SDS011;9149;47.002;8.604;2024-03-02T06:39:17;4.87;;;2.97;;
18048;SDS011;9149;47.002;8.604;2024-03-02T06:41:44;4.30;;;2.90;;
18048;SDS011;9149;47.002;8.604;2024-03-02T06:44:13;4.60;;;3.33;;
18048;SDS011;9149;47.002;8.604;2024-03-02T06:46:41;4.97;;;2.97;;
18048;SDS011;9149;47.002;8.604;2024-03-02T06:49:08;4.77;;;3.40;;
18048;SDS011;9149;47.002;8.604;2024-03-02T06:51:37;11.90;;;3.43;;
18048;SDS011;9149;47.002;8.604;2024-03-02T06:54:04;5.60;;;3.40;;
18048;SDS011;9149;47.002;8.604;2024-03-02T06:56:33;5.07;;;3.27;;
18048;SDS011;9149;47.002;8.604;2024-03-02T06:59:01;6.57;;;3.43;;
18048;SDS011;9149;47.002;8.604;2024-03-02T07:01:29;6.97;;;3.57;;
18048;SDS011;9149;47.002;8.604;2024-03-02T07:03:56;6.73;;;3.73;;
18048;SDS011;9149;47.002;8.604;2024-03-02T07:06:24;6.03;;;3.43;;
18048;SDS011;9149;47.002;8.604;2024-03-02T07:08:52;9.43;;;3.33;;
18048;SDS011;9149;47.002;8.604;2024-03-02T07:11:19;5.47;;;2.73;;
18048;SDS011;9149;47.002;8.604;2024-03-02T07:13:48;8.03;;;3.07;;
18048;SDS011;9149;47.002;8.604;2024-03-02T07:16:16;4.70;;;3.40;;
18048;SDS011;9149;47.002;8.604;2024-03-02T07:18:54;5.00;;;3.20;;
18048;SDS011;9149;47.002;8.604;2024-03-02T07:21:23;5.87;;;3.40;;
18048;SDS011;9149;47.002;8.604;2024-03-02T07:23:51;6.17;;;3.70;;
18048;SDS011;9149;47.002;8.604;2024-03-02T07:26:18;7.27;;;4.17;;
18048;SDS011;9149;47.002;8.604;2024-03-02T07:28:51;11.73;;;5.37;;
18048;SDS011;9149;47.002;8.604;2024-03-02T07:31:18;7.40;;;4.00;;
18048;SDS011;9149;47.002;8.604;2024-03-02T07:33:46;5.10;;;3.10;;
18048;SDS011;9149;47.002;8.604;2024-03-02T07:36:14;5.27;;;2.20;;
18048;SDS011;9149;47.002;8.604;2024-03-02T07:38:42;2.65;;;1.88;;
18048;SDS011;9149;47.002;8.604;2024-03-02T07:41:11;3.35;;;2.33;;
18048;SDS011;9149;47.002;8.604;2024-03-02T07:43:39;3.65;;;1.90;;
18048;SDS011;9149;47.002;8.604;2024-03-02T07:46:08;2.35;;;1.85;;
18048;SDS011;9149;47.002;8.604;2024-03-02T07:48:36;2.85;;;1.90;;
18048;SDS011;9149;47.002;8.604;2024-03-02T07:51:04;2.03;;;1.50;;
18048;SDS011;9149;47.002;8.604;2024-03-02T07:53:32;2.85;;;1.98;;
18048;SDS011;9149;47.002;8.604;2024-03-02T07:55:59;4.97;;;1.70;;
18048;SDS011;9149;47.002;8.604;2024-03-02T07:58:29;2.65;;;1.60;;
18048;SDS011;9149;47.002;8.604;2024-03-02T08:00:58;2.55;;;1.88;;
18048;SDS011;9149;47.002;8.604;2024-03-02T08:03:29;4.97;;;1.40;;
18048;SDS011;9149;47.002;8.604;2024-03-02T08:05:58;2.00;;;1.40;;
18048;SDS011;9149;47.002;8.604;2024-03-02T08:08:27;2.08;;;1.58;;
18048;SDS011;9149;47.002;8.604;2024-03-02T08:10:54;1.80;;;1.30;;
18048;SDS011;9149;47.002;8.604;2024-03-02T08:13:24;3.72;;;1.88;;
18048;SDS011;9149;47.002;8.604;2024-03-02T08:15:51;2.42;;;1.63;;
18048;SDS011;9149;47.002;8.604;2024-03-02T08:18:18;1.98;;;1.55;;
18048;SDS011;9149;47.002;8.604;2024-03-02T08:20:48;2.13;;;1.60;;
18048;SDS011;9149;47.002;8.604;2024-03-02T08:23:15;1.90;;;1.40;;
18048;SDS011;9149;47.002;8.604;2024-03-02T08:25:43;3.40;;;1.40;;
18048;SDS011;9149;47.002;8.604;2024-03-02T08:28:11;1.55;;;1.40;;
18048;SDS011;9149;47.002;8.604;2024-03-02T08:30:39;1.92;;;1.73;;
18048;SDS011;9149;47.002;8.604;2024-03-02T08:33:07;1.95;;;1.40;;
18048;SDS011;9149;47.002;8.604;2024-03-02T08:35:34;6.85;;;2.33;;
18048;SDS011;9149;47.002;8.604;2024-03-02T08:38:04;1.33;;;1.20;;
18048;SDS011;9149;47.002;8.604;2024-03-02T08:40:32;2.58;;;1.30;;
18048;SDS011;9149;47.002;8.604;2024-03-02T08:42:59;2.55;;;1.42;;
18048;SDS011;9149;47.002;8.604;2024-03-02T08:45:27;1.75;;;1.20;;
18048;SDS011;9149;47.002;8.604;2024-03-02T08:47:55;1.33;;;1.23;;
18048;SDS011;9149;47.002;8.604;2024-03-02T08:50:22;1.30;;;1.10;;
18048;SDS011;9149;47.002;8.604;2024-03-02T08:52:50;1.23;;;1.08;;
18048;SDS011;9149;47.002;8.604;2024-03-02T08:55:19;1.63;;;1.05;;
18048;SDS011;9149;47.002;8.604;2024-03-02T08:57:46;1.40;;;1.20;;
18048;SDS011;9149;47.002;8.604;2024-03-02T09:00:17;1.48;;;1.10;;
18048;SDS011;9149;47.002;8.604;2024-03-02T09:02:45;1.13;;;1.02;;
18048;SDS011;9149;47.002;8.604;2024-03-02T09:05:13;1.85;;;1.08;;
18048;SDS011;9149;47.002;8.604;2024-03-02T09:07:41;1.40;;;1.20;;
18048;SDS011;9149;47.002;8.604;2024-03-02T09:10:09;1.77;;;1.10;;
18048;SDS011;9149;47.002;8.604;2024-03-02T09:12:38;1.73;;;1.20;;
18048;SDS011;9149;47.002;8.604;2024-03-02T09:15:06;1.75;;;1.40;;
18048;SDS011;9149;47.002;8.604;2024-03-02T09:17:34;1.42;;;1.17;;
18048;SDS011;9149;47.002;8.604;2024-03-02T09:20:01;1.73;;;1.00;;
18048;SDS011;9149;47.002;8.604;2024-03-02T09:22:30;1.15;;;0.85;;
18048;SDS011;9149;47.002;8.604;2024-03-02T09:24:58;1.23;;;0.80;;
18048;SDS011;9149;47.002;8.604;2024-03-02T09:27:26;0.95;;;0.80;;
18048;SDS011;9149;47.002;8.604;2024-03-02T09:29:55;0.85;;;0.70;;
18048;SDS011;9149;47.002;8.604;2024-03-02T09:32:22;1.50;;;1.05;;
18048;SDS011;9149;47.002;8.604;2024-03-02T09:34:50;4.05;;;1.17;;
18048;SDS011;9149;47.002;8.604;2024-03-02T09:37:19;1.10;;;0.80;;
18048;SDS011;9149;47.002;8.604;2024-03-02T09:39:47;0.80;;;0.60;;
18048;SDS011;9149;47.002;8.604;2024-03-02T09:42:15;1.23;;;0.90;;
18048;SDS011;9149;47.002;8.604;2024-03-02T09:44:42;1.25;;;1.02;;
18048;SDS011;9149;47.002;8.604;2024-03-02T09:47:12;2.55;;;1.30;;
18048;SDS011;9149;47.002;8.604;2024-03-02T09:49:40;1.58;;;1.10;;
18048;SDS011;9149;47.002;8.604;2024-03-02T09:52:08;2.70;;;1.50;;
18048;SDS011;9149;47.002;8.604;2024-03-02T09:54:36;1.92;;;1.40;;
18048;SDS011;9149;47.002;8.604;2024-03-02T09:57:04;1.63;;;1.20;;
18048;SDS011;9149;47.002;8.604;2024-03-02T09:59:32;3.50;;;2.08;;
18048;SDS011;9149;47.002;8.604;2024-03-02T10:02:20;2.38;;;1.90;;
18048;SDS011;9149;47.002;8.604;2024-03-02T10:04:48;3.25;;;2.10;;
18048;SDS011;9149;47.002;8.604;2024-03-02T10:07:16;2.83;;;2.00;;
18048;SDS011;9149;47.002;8.604;2024-03-02T10:09:44;2.67;;;1.80;;
18048;SDS011;9149;47.002;8.604;2024-03-02T10:12:13;3.58;;;1.80;;
18048;SDS011;9149;47.002;8.604;2024-03-02T10:14:41;2.30;;;1.70;;
18048;SDS011;9149;47.002;8.604;2024-03-02T10:17:09;5.10;;;2.08;;
18048;SDS011;9149;47.002;8.604;2024-03-02T10:19:39;3.30;;;1.83;;
18048;SDS011;9149;47.002;8.604;2024-03-02T10:22:07;3.28;;;2.05;;
18048;SDS011;9149;47.002;8.604;2024-03-02T10:24:36;5.90;;;2.00;;
18048;SDS011;9149;47.002;8.604;2024-03-02T10:27:06;3.03;;;2.10;;
18048;SDS011;9149;47.002;8.604;2024-03-02T10:29:36;6.25;;;2.33;;
18048;SDS011;9149;47.002;8.604;2024-03-02T10:32:04;3.10;;;2.05;;
18048;SDS011;9149;47.002;8.604;2024-03-02T10:34:33;2.90;;;1.63;;
18048;SDS011;9149;47.002;8.604;2024-03-02T10:37:02;2.63;;;1.83;;
18048;SDS011;9149;47.002;8.604;2024-03-02T10:39:32;2.85;;;1.88;;
18048;SDS011;9149;47.002;8.604;2024-03-02T10:42:02;2.83;;;1.73;;
18048;SDS011;9149;47.002;8.604;2024-03-02T10:44:30;2.00;;;1.50;;
18048;SDS011;9149;47.002;8.604;2024-03-02T10:46:59;1.40;;;1.30;;
18048;SDS011;9149;47.002;8.604;2024-03-02T10:49:27;1.60;;;1.30;;
18048;SDS011;9149;47.002;8.604;2024-03-02T10:51:56;1.67;;;1.30;;
18048;SDS011;9149;47.002;8.604;2024-03-02T10:54:25;2.40;;;1.50;;
18048;SDS011;9149;47.002;8.604;2024-03-02T10:56:55;1.90;;;1.40;;
18048;SDS011;9149;47.002;8.604;2024-03-02T10:59:27;1.65;;;1.30;;
18048;SDS011;9149;47.002;8.604;2024-03-02T11:01:56;1.83;;;1.50;;
18048;SDS011;9149;47.002;8.604;2024-03-02T11:04:29;2.13;;;1.75;;
18048;SDS011;9149;47.002;8.604;2024-03-02T11:06:59;2.45;;;1.60;;
18048;SDS011;9149;47.002;8.604;2024-03-02T11:09:28;2.17;;;1.60;;
18048;SDS011;9149;47.002;8.604;2024-03-02T11:12:00;4.93;;;2.22;;
18048;SDS011;9149;47.002;8.604;2024-03-02T11:14:30;3.22;;;2.00;;
18048;SDS011;9149;47.002;8.604;2024-03-02T11:16:58;3.05;;;2.00;;
18048;SDS011;9149;47.002;8.604;2024-03-02T11:19:26;3.10;;;2.00;;
18048;SDS011;9149;47.002;8.604;2024-03-02T11:21:54;2.53;;;1.85;;
18048;SDS011;9149;47.002;8.604;2024-03-02T11:24:29;3.65;;;1.98;;
18048;SDS011;9149;47.002;8.604;2024-03-02T11:27:04;3.15;;;2.08;;
18048;SDS011;9149;47.002;8.604;2024-03-02T11:32:13;4.10;;;2.50;;
18048;SDS011;9149;47.002;8.604;2024-03-02T11:34:42;3.63;;;2.50;;
18048;SDS011;9149;47.002;8.604;2024-03-02T11:37:11;3.92;;;2.17;;
18048;SDS011;9149;47.002;8.604;2024-03-02T11:39:41;3.35;;;1.90;;
18048;SDS011;9149;47.002;8.604;2024-03-02T11:42:09;4.25;;;2.42;;
18048;SDS011;9149;47.002;8.604;2024-03-02T11:44:38;3.85;;;2.47;;
18048;SDS011;9149;47.002;8.604;2024-03-02T11:47:06;4.15;;;2.67;;
18048;SDS011;9149;47.002;8.604;2024-03-02T11:49:37;4.65;;;2.65;;
18048;SDS011;9149;47.002;8.604;2024-03-02T11:52:06;4.50;;;2.65;;
18048;SDS011;9149;47.002;8.604;2024-03-02T11:54:34;6.35;;;2.80;;
18048;SDS011;9149;47.002;8.604;2024-03-02T11:57:07;3.47;;;2.67;;
18048;SDS011;9149;47.002;8.604;2024-03-02T11:59:35;4.53;;;2.78;;
18048;SDS011;9149;47.002;8.604;2024-03-02T12:02:03;4.15;;;2.78;;
18048;SDS011;9149;47.002;8.604;2024-03-02T12:04:30;4.32;;;2.95;;
18048;SDS011;9149;47.002;8.604;2024-03-02T12:06:59;3.90;;;2.75;;
18048;SDS011;9149;47.002;8.604;2024-03-02T12:09:27;4.53;;;2.88;;
18048;SDS011;9149;47.002;8.604;2024-03-02T12:14:36;4.65;;;2.88;;
18048;SDS011;9149;47.002;8.604;2024-03-02T12:17:04;5.40;;;3.13;;
18048;SDS011;9149;47.002;8.604;2024-03-02T12:19:32;4.93;;;3.00;;
18048;SDS011;9149;47.002;8.604;2024-03-02T12:22:00;5.20;;;3.38;;
18048;SDS011;9149;47.002;8.604;2024-03-02T12:24:29;4.13;;;2.80;;
18048;SDS011;9149;47.002;8.604;2024-03-02T12:26:56;7.80;;;3.22;;
18048;SDS011;9149;47.002;8.604;2024-03-02T12:29:25;5.07;;;3.08;;
18048;SDS011;9149;47.002;8.604;2024-03-02T12:31:54;4.13;;;3.03;;
18048;SDS011;9149;47.002;8.604;2024-03-02T12:34:22;4.85;;;3.00;;
18048;SDS011;9149;47.002;8.604;2024-03-02T12:36:50;5.63;;;3.30;;
18048;SDS011;9149;47.002;8.604;2024-03-02T12:39:19;5.93;;;3.50;;
18048;SDS011;9149;47.002;8.604;2024-03-02T12:41:49;6.00;;;3.70;;
18048;SDS011;9149;47.002;8.604;2024-03-02T12:44:18;6.50;;;3.33;;
18048;SDS011;9149;47.002;8.604;2024-03-02T12:46:45;6.53;;;3.33;;
18048;SDS011;9149;47.002;8.604;2024-03-02T12:49:15;6.25;;;3.20;;
18048;SDS011;9149;47.002;8.604;2024-03-02T12:51:43;5.28;;;3.50;;
18048;SDS011;9149;47.002;8.604;2024-03-02T12:54:13;7.35;;;2.90;;
18048;SDS011;9149;47.002;8.604;2024-03-02T12:56:41;7.18;;;3.65;;
18048;SDS011;9149;47.002;8.604;2024-03-02T12:59:17;5.47;;;3.45;;
18048;SDS011;9149;47.002;8.604;2024-03-02T13:01:49;5.55;;;3.00;;
18048;SDS011;9149;47.002;8.604;2024-03-02T13:04:22;5.80;;;3.22;;
18048;SDS011;9149;47.002;8.604;2024-03-02T13:06:51;9.93;;;4.05;;
18048;SDS011;9149;47.002;8.604;2024-03-02T13:09:19;8.07;;;3.85;;
18048;SDS011;9149;47.002;8.604;2024-03-02T13:11:48;4.53;;;2.92;;
18048;SDS011;9149;47.002;8.604;2024-03-02T13:14:15;7.18;;;3.92;;
18048;SDS011;9149;47.002;8.604;2024-03-02T13:16:44;6.40;;;3.45;;
18048;SDS011;9149;47.002;8.604;2024-03-02T13:19:13;9.65;;;3.08;;
18048;SDS011;9149;47.002;8.604;2024-03-02T13:21:42;5.53;;;3.50;;
18048;SDS011;9149;47.002;8.604;2024-03-02T13:24:10;6.05;;;3.30;;
18048;SDS011;9149;47.002;8.604;2024-03-02T13:26:38;6.32;;;3.40;;
18048;SDS011;9149;47.002;8.604;2024-03-02T13:29:06;10.20;;;3.95;;
18048;SDS011;9149;47.002;8.604;2024-03-02T13:31:34;5.07;;;2.83;;
18048;SDS011;9149;47.002;8.604;2024-03-02T13:34:02;5.28;;;3.15;;
18048;SDS011;9149;47.002;8.604;2024-03-02T13:36:30;7.15;;;3.50;;
18048;SDS011;9149;47.002;8.604;2024-03-02T13:38:59;6.55;;;3.30;;
18048;SDS011;9149;47.002;8.604;2024-03-02T13:41:26;6.60;;;3.55;;
18048;SDS011;9149;47.002;8.604;2024-03-02T13:43:54;7.72;;;3.67;;
18048;SDS011;9149;47.002;8.604;2024-03-02T13:46:22;6.22;;;3.45;;
18048;SDS011;9149;47.002;8.604;2024-03-02T13:48:50;5.75;;;3.35;;
18048;SDS011;9149;47.002;8.604;2024-03-02T13:51:18;7.40;;;3.58;;
18048;SDS011;9149;47.002;8.604;2024-03-02T13:53:46;5.15;;;3.42;;
18048;SDS011;9149;47.002;8.604;2024-03-02T13:56:15;7.25;;;3.95;;
18048;SDS011;9149;47.002;8.604;2024-03-02T13:58:42;6.22;;;3.60;;
18048;SDS011;9149;47.002;8.604;2024-03-02T14:01:12;6.50;;;3.53;;
18048;SDS011;9149;47.002;8.604;2024-03-02T14:03:43;6.82;;;3.10;;
18048;SDS011;9149;47.002;8.604;2024-03-02T14:06:12;5.00;;;3.20;;
18048;SDS011;9149;47.002;8.604;2024-03-02T14:08:40;5.88;;;3.30;;
18048;SDS011;9149;47.002;8.604;2024-03-02T14:11:11;5.40;;;3.10;;
18048;SDS011;9149;47.002;8.604;2024-03-02T14:13:42;4.60;;;3.03;;
18048;SDS011;9149;47.002;8.604;2024-03-02T14:16:14;6.15;;;3.58;;
18048;SDS011;9149;47.002;8.604;2024-03-02T14:18:42;6.70;;;3.63;;
18048;SDS011;9149;47.002;8.604;2024-03-02T14:21:10;7.53;;;3.90;;
18048;SDS011;9149;47.002;8.604;2024-03-02T14:23:38;7.45;;;3.83;;
18048;SDS011;9149;47.002;8.604;2024-03-02T14:26:07;7.18;;;4.13;;
18048;SDS011;9149;47.002;8.604;2024-03-02T14:28:34;7.03;;;3.33;;
18048;SDS011;9149;47.002;8.604;2024-03-02T14:31:09;10.35;;;3.90;;
18048;SDS011;9149;47.002;8.604;2024-03-02T14:33:37;10.52;;;3.75;;
18048;SDS011;9149;47.002;8.604;2024-03-02T14:36:05;6.55;;;3.92;;
18048;SDS011;9149;47.002;8.604;2024-03-02T14:38:32;5.60;;;3.40;;
18048;SDS011;9149;47.002;8.604;2024-03-02T14:41:00;7.70;;;3.80;;
18048;SDS011;9149;47.002;8.604;2024-03-02T14:43:29;7.68;;;4.32;;
18048;SDS011;9149;47.002;8.604;2024-03-02T14:45:56;9.82;;;4.00;;
18048;SDS011;9149;47.002;8.604;2024-03-02T14:48:26;8.93;;;4.38;;
18048;SDS011;9149;47.002;8.604;2024-03-02T14:50:54;9.63;;;4.53;;
18048;SDS011;9149;47.002;8.604;2024-03-02T14:53:22;9.90;;;4.18;;
18048;SDS011;9149;47.002;8.604;2024-03-02T14:55:49;7.72;;;4.60;;
18048;SDS011;9149;47.002;8.604;2024-03-02T14:58:17;10.90;;;4.60;;
18048;SDS011;9149;47.002;8.604;2024-03-02T15:00:45;6.38;;;3.92;;
18048;SDS011;9149;47.002;8.604;2024-03-02T15:03:13;10.23;;;4.88;;
18048;SDS011;9149;47.002;8.604;2024-03-02T15:05:42;7.63;;;4.20;;
18048;SDS011;9149;47.002;8.604;2024-03-02T15:08:10;8.38;;;4.95;;
18048;SDS011;9149;47.002;8.604;2024-03-02T15:10:37;8.55;;;4.57;;
18048;SDS011;9149;47.002;8.604;2024-03-02T15:13:06;11.98;;;5.07;;